Time;durP1;ratioP1;P1;durP2;ratioP2;P2;SDS_P1;SDS_P2;PMS_P1;PMS_P2;Temp;Humidity;BMP_temperature;BMP_pressure;BME280_temperature;BME280_humidity;BME280_pressure;Samples;Min_cycle;Max_cycle;Signal;HPM_P1;HPM_P2
2023/07/20 00:01:15;;;;;;;3.03;1.10;;;17.80;88.10;;;;;;5069946;28;20177;-79
2023/07/20 00:03:41;;;;;;;4.07;1.20;;;17.70;88.80;;;;;;5076145;28;20454;-79
2023/07/20 00:06:06;;;;;;;4.13;1.27;;;17.70;89.70;;;;;;5067499;28;20188;-79
2023/07/20 00:08:32;;;;;;;3.00;1.20;;;17.60;90.00;;;;;;5074829;28;20178;-79
2023/07/20 00:10:58;;;;;;;5.33;1.60;;;17.50;90.20;;;;;;5074577;28;20212;-78
2023/07/20 00:13:24;;;;;;;2.43;1.23;;;17.50;90.10;;;;;;5071520;28;20192;-79
2023/07/20 00:15:49;;;;;;;2.83;1.33;;;17.40;90.40;;;;;;5070343;28;20185;-78
2023/07/20 00:18:15;;;;;;;4.57;1.50;;;17.30;90.40;;;;;;5073408;28;20181;-78
2023/07/20 00:20:41;;;;;;;2.50;1.53;;;17.30;90.60;;;;;;5079833;28;20207;-79
2023/07/20 00:23:06;;;;;;;3.53;1.73;;;17.20;90.30;;;;;;5067137;28;20643;-79
2023/07/20 00:25:33;;;;;;;2.83;1.63;;;17.20;90.40;;;;;;5070224;28;20201;-78
2023/07/20 00:27:59;;;;;;;3.20;1.37;;;17.00;90.70;;;;;;5075269;28;20191;-79
2023/07/20 00:30:24;;;;;;;3.50;1.40;;;17.00;91.10;;;;;;5078397;28;20466;-77
2023/07/20 00:32:50;;;;;;;2.73;1.13;;;16.90;91.20;;;;;;5069849;28;20235;-79
2023/07/20 00:35:16;;;;;;;4.50;1.77;;;16.90;91.30;;;;;;5047959;28;20681;-79
2023/07/20 00:37:41;;;;;;;2.63;1.10;;;16.80;91.20;;;;;;5069084;28;20574;-79
2023/07/20 00:40:07;;;;;;;3.40;1.40;;;16.70;91.20;;;;;;5076811;28;20676;-79
2023/07/20 00:42:33;;;;;;;2.53;1.40;;;16.70;91.20;;;;;;5065141;28;20181;-78
2023/07/20 00:45:00;;;;;;;3.23;1.77;;;16.70;91.20;;;;;;5051359;28;20561;-79
2023/07/20 00:47:26;;;;;;;2.40;1.57;;;16.60;91.30;;;;;;5066092;28;20426;-78
2023/07/20 00:49:52;;;;;;;5.50;1.10;;;16.60;91.30;;;;;;5055983;28;20620;-78
2023/07/20 00:52:21;;;;;;;4.10;1.53;;;16.50;91.20;;;;;;5067371;28;20454;-77
2023/07/20 00:54:47;;;;;;;2.50;1.13;;;16.50;91.30;;;;;;5063650;28;20463;-79
2023/07/20 00:57:14;;;;;;;3.93;1.77;;;16.60;91.20;;;;;;5065984;28;20431;-77
2023/07/20 00:59:40;;;;;;;7.93;2.20;;;16.50;91.40;;;;;;5065359;28;20774;-79
2023/07/20 01:02:06;;;;;;;2.10;1.37;;;16.50;91.40;;;;;;5071455;28;20506;-79
2023/07/20 01:04:32;;;;;;;2.30;1.40;;;16.50;91.40;;;;;;5048641;28;20622;-79
2023/07/20 01:07:05;;;;;;;6.63;1.07;;;16.40;91.70;;;;;;5069815;28;20180;-77
2023/07/20 01:09:42;;;;;;;3.27;1.50;;;16.40;92.10;;;;;;5046999;28;20473;-79
2023/07/20 01:12:12;;;;;;;4.37;1.63;;;16.30;91.80;;;;;;5072739;28;21131;-78
2023/07/20 01:14:38;;;;;;;3.17;1.40;;;16.30;92.20;;;;;;5067056;28;20463;-77
2023/07/20 01:17:04;;;;;;;5.20;1.60;;;16.30;91.70;;;;;;5069528;28;20534;-75
2023/07/20 01:19:30;;;;;;;4.13;1.93;;;16.30;91.80;;;;;;5067947;28;21010;-78
2023/07/20 01:22:00;;;;;;;6.30;1.57;;;16.30;91.80;;;;;;5071730;28;20540;-74
2023/07/20 01:24:31;;;;;;;1.90;1.20;;;16.30;91.90;;;;;;5072620;28;20232;-75
2023/07/20 01:27:11;;;;;;;4.00;1.70;;;16.20;92.20;;;;;;5070139;28;20479;-78
2023/07/20 01:30:08;;;;;;;3.97;1.13;;;16.10;92.10;;;;;;5063902;28;20456;-77
2023/07/20 01:32:35;;;;;;;4.37;1.80;;;16.10;92.20;;;;;;5067479;28;20455;-78
2023/07/20 01:35:02;;;;;;;2.60;1.10;;;15.90;92.40;;;;;;5072304;28;20443;-77
2023/07/20 01:37:30;;;;;;;3.73;1.80;;;15.90;93.20;;;;;;5070776;28;20465;-78
2023/07/20 01:39:56;;;;;;;3.07;1.40;;;15.90;92.90;;;;;;5073330;28;20500;-76
2023/07/20 01:42:23;;;;;;;1.83;1.20;;;16.00;93.20;;;;;;5064563;28;20440;-78
2023/07/20 01:44:52;;;;;;;2.50;1.37;;;16.00;93.00;;;;;;5070598;28;20536;-78
2023/07/20 01:47:18;;;;;;;3.30;1.80;;;15.90;92.70;;;;;;5054213;28;20490;-77
2023/07/20 01:49:43;;;;;;;1.90;1.00;;;15.90;93.00;;;;;;5071708;28;21009;-77
2023/07/20 01:52:09;;;;;;;2.87;1.40;;;16.00;92.20;;;;;;5048856;28;20228;-78
2023/07/20 01:54:34;;;;;;;4.70;1.83;;;16.00;92.20;;;;;;5076704;28;20704;-77
2023/07/20 01:57:00;;;;;;;3.63;1.47;;;16.10;92.10;;;;;;5066740;28;20197;-76
2023/07/20 01:59:26;;;;;;;2.33;1.30;;;16.10;91.90;;;;;;5069689;28;20189;-75
2023/07/20 02:01:52;;;;;;;1.80;0.90;;;16.10;92.10;;;;;;5066358;28;20217;-78
2023/07/20 02:04:18;;;;;;;5.43;1.53;;;16.20;91.90;;;;;;5067620;28;20208;-77
2023/07/20 02:06:44;;;;;;;3.30;1.43;;;16.10;92.00;;;;;;5067213;28;20932;-77
2023/07/20 02:09:09;;;;;;;3.37;1.60;;;16.10;92.50;;;;;;5072948;28;20237;-78
2023/07/20 02:11:35;;;;;;;12.03;1.77;;;16.00;92.50;;;;;;5067083;28;20273;-78
2023/07/20 02:14:01;;;;;;;5.33;1.97;;;15.90;92.80;;;;;;5076868;28;20212;-77
2023/07/20 02:16:26;;;;;;;5.90;1.97;;;15.70;93.00;;;;;;5070333;28;20255;-77
2023/07/20 02:18:52;;;;;;;5.70;2.00;;;15.60;93.50;;;;;;5057627;28;20609;-77
2023/07/20 02:21:18;;;;;;;3.33;1.77;;;15.50;93.90;;;;;;5070068;28;20200;-76
2023/07/20 02:23:44;;;;;;;4.50;1.87;;;15.30;94.30;;;;;;5054972;28;20955;-78
2023/07/20 02:26:09;;;;;;;5.00;2.13;;;15.30;94.50;;;;;;5068990;28;20201;-77
2023/07/20 02:28:35;;;;;;;2.73;1.40;;;15.20;95.10;;;;;;5073247;28;20188;-77
2023/07/20 02:31:01;;;;;;;3.93;1.80;;;15.20;95.10;;;;;;5067099;28;20217;-76
2023/07/20 02:33:26;;;;;;;3.17;1.53;;;15.20;95.20;;;;;;5056104;28;20194;-74
2023/07/20 02:35:52;;;;;;;5.23;2.20;;;15.10;95.40;;;;;;5058961;28;20210;-79
2023/07/20 02:38:18;;;;;;;3.03;1.50;;;15.00;95.80;;;;;;5070898;28;20626;-78
2023/07/20 02:40:43;;;;;;;2.97;1.20;;;15.00;96.00;;;;;;5080786;28;20268;-78
2023/07/20 02:43:09;;;;;;;2.03;1.10;;;15.00;96.10;;;;;;5073272;28;20709;-77
2023/07/20 02:45:35;;;;;;;3.20;1.77;;;15.00;96.40;;;;;;5074604;28;20792;-76
2023/07/20 02:48:01;;;;;;;3.00;1.27;;;14.90;96.30;;;;;;5074400;28;20181;-76
2023/07/20 02:50:26;;;;;;;3.60;1.43;;;14.90;96.50;;;;;;5071239;28;20459;-78
2023/07/20 02:52:52;;;;;;;3.03;1.60;;;14.90;96.50;;;;;;5062565;28;20187;-77
2023/07/20 02:55:17;;;;;;;3.50;1.47;;;15.00;96.40;;;;;;5066994;28;20213;-78
2023/07/20 02:57:43;;;;;;;4.50;1.40;;;15.00;96.10;;;;;;5056937;28;20197;-77
2023/07/20 03:00:09;;;;;;;2.20;1.23;;;15.00;96.40;;;;;;5069444;28;20629;-76
2023/07/20 03:02:35;;;;;;;4.63;1.70;;;15.00;96.80;;;;;;5054627;28;20196;-78
2023/07/20 03:05:05;;;;;;;5.13;1.47;;;14.90;96.60;;;;;;5066351;28;20977;-77
2023/07/20 03:07:31;;;;;;;3.20;1.57;;;14.80;96.90;;;;;;5078025;28;20196;-77
2023/07/20 03:09:57;;;;;;;7.00;1.70;;;14.70;97.30;;;;;;5052660;28;20452;-77
2023/07/20 03:12:22;;;;;;;3.73;1.50;;;14.70;97.50;;;;;;5054664;28;20181;-77
2023/07/20 03:14:48;;;;;;;4.63;1.70;;;14.60;97.90;;;;;;5074847;28;20211;-77
2023/07/20 03:17:13;;;;;;;2.50;1.23;;;14.60;98.00;;;;;;5073530;28;20197;-78
2023/07/20 03:19:39;;;;;;;4.70;1.90;;;14.50;98.40;;;;;;5076479;28;20250;-78
2023/07/20 03:22:05;;;;;;;2.73;1.50;;;14.50;98.70;;;;;;5069606;28;20216;-77
2023/07/20 03:24:30;;;;;;;4.50;1.90;;;14.50;99.00;;;;;;5059774;28;20624;-77
2023/07/20 03:26:56;;;;;;;4.00;1.50;;;14.50;99.20;;;;;;5058159;28;20184;-76
2023/07/20 03:29:21;;;;;;;17.10;1.37;;;14.40;99.60;;;;;;5074128;28;20209;-76
2023/07/20 03:31:48;;;;;;;4.90;1.47;;;14.40;99.60;;;;;;5070786;28;20189;-77
2023/07/20 03:34:13;;;;;;;3.20;1.83;;;14.40;99.90;;;;;;5072124;28;20642;-77
2023/07/20 03:36:39;;;;;;;3.13;1.63;;;14.30;99.90;;;;;;5053135;28;20475;-77
2023/07/20 03:39:04;;;;;;;4.80;1.27;;;14.30;99.90;;;;;;5079816;28;20302;-77
2023/07/20 03:41:30;;;;;;;2.37;1.23;;;14.40;99.90;;;;;;5074097;28;20295;-78
2023/07/20 03:43:56;;;;;;;3.90;1.90;;;14.40;99.90;;;;;;5070845;28;20213;-78
2023/07/20 03:46:21;;;;;;;6.50;1.63;;;14.40;99.90;;;;;;5075240;28;20173;-78
2023/07/20 03:48:47;;;;;;;3.70;1.20;;;14.50;99.90;;;;;;5064641;28;20189;-77
2023/07/20 03:51:13;;;;;;;2.80;1.43;;;14.50;99.90;;;;;;5067234;28;20237;-77
2023/07/20 03:53:38;;;;;;;3.90;1.70;;;14.60;99.90;;;;;;5051956;28;20208;-77
2023/07/20 03:56:04;;;;;;;2.83;1.37;;;14.50;99.90;;;;;;5071009;28;20427;-78
2023/07/20 03:58:31;;;;;;;2.10;1.17;;;14.50;99.90;;;;;;5079696;28;20247;-77
2023/07/20 04:00:57;;;;;;;2.70;1.50;;;14.50;99.90;;;;;;5075689;28;20173;-78
2023/07/20 04:03:26;;;;;;;3.83;1.47;;;14.50;99.90;;;;;;5083808;28;20542;-78
2023/07/20 04:05:55;;;;;;;2.83;1.33;;;14.60;99.90;;;;;;5073846;28;20440;-77
2023/07/20 04:08:21;;;;;;;2.90;1.40;;;14.70;99.90;;;;;;5093749;28;20431;-79
2023/07/20 04:10:46;;;;;;;2.00;1.20;;;14.70;99.90;;;;;;5093663;28;20474;-78
2023/07/20 04:13:12;;;;;;;2.67;1.17;;;14.80;99.90;;;;;;5067168;28;20438;-76
2023/07/20 04:15:38;;;;;;;4.40;1.40;;;14.80;99.90;;;;;;5040767;28;20700;-78
2023/07/20 04:18:04;;;;;;;4.27;1.50;;;14.90;99.90;;;;;;5062619;28;20319;-78
2023/07/20 04:20:29;;;;;;;2.60;1.50;;;15.00;99.90;;;;;;5066615;28;20224;-77
2023/07/20 04:22:55;;;;;;;2.90;1.40;;;15.10;99.90;;;;;;5070078;28;20439;-79
2023/07/20 04:25:21;;;;;;;3.00;1.63;;;15.10;99.90;;;;;;5058408;28;20197;-78
2023/07/20 04:27:46;;;;;;;6.40;1.90;;;15.20;99.90;;;;;;5067148;28;20173;-79
2023/07/20 04:30:12;;;;;;;5.43;1.50;;;15.20;99.90;;;;;;5069176;28;20246;-76
2023/07/20 04:32:44;;;;;;;2.40;1.10;;;15.30;99.90;;;;;;5068582;28;20181;-77
2023/07/20 04:35:09;;;;;;;3.50;1.37;;;15.30;99.90;;;;;;5050717;28;21037;-78
2023/07/20 04:37:35;;;;;;;2.20;1.20;;;15.50;99.90;;;;;;5068428;28;20784;-78
2023/07/20 04:40:01;;;;;;;2.73;1.10;;;15.60;99.20;;;;;;5065322;28;20559;-78
2023/07/20 04:42:26;;;;;;;2.13;1.10;;;15.70;99.20;;;;;;5066513;28;20237;-78
2023/07/20 04:44:52;;;;;;;5.37;1.93;;;15.70;99.50;;;;;;5061131;28;20209;-78
2023/07/20 04:47:17;;;;;;;2.70;1.00;;;15.70;99.60;;;;;;5060999;28;20196;-78
2023/07/20 04:49:43;;;;;;;1.70;0.90;;;15.70;99.90;;;;;;5050723;28;20265;-78
2023/07/20 04:52:09;;;;;;;5.30;1.47;;;15.70;99.90;;;;;;5065355;28;20237;-79
2023/07/20 04:54:34;;;;;;;4.33;1.23;;;15.80;99.70;;;;;;5044856;28;20202;-78
2023/07/20 04:57:00;;;;;;;2.27;0.90;;;15.80;99.60;;;;;;5064235;28;20205;-78
2023/07/20 04:59:25;;;;;;;2.50;1.30;;;15.90;99.30;;;;;;5062540;28;20241;-78
2023/07/20 05:01:51;;;;;;;7.00;1.97;;;16.00;99.20;;;;;;5064890;28;20264;-79
2023/07/20 05:04:17;;;;;;;2.90;1.30;;;16.00;99.10;;;;;;5045560;28;20636;-77
2023/07/20 05:06:43;;;;;;;3.10;1.27;;;16.00;98.90;;;;;;5068365;28;20185;-78
2023/07/20 05:09:09;;;;;;;5.80;1.50;;;16.10;99.30;;;;;;5070513;28;20177;-76
2023/07/20 05:11:34;;;;;;;2.00;1.23;;;16.20;99.60;;;;;;5059259;28;20477;-78
2023/07/20 05:14:00;;;;;;;2.77;1.40;;;16.20;99.30;;;;;;5068463;28;20196;-77
2023/07/20 05:16:26;;;;;;;3.20;1.53;;;16.30;99.60;;;;;;5045775;28;20193;-79
2023/07/20 05:18:52;;;;;;;3.47;1.20;;;16.40;99.00;;;;;;5066093;28;20442;-78
2023/07/20 05:21:17;;;;;;;2.17;1.27;;;16.50;99.40;;;;;;5059585;28;20567;-78
2023/07/20 05:23:43;;;;;;;3.10;1.23;;;16.60;99.40;;;;;;5061262;28;20280;-77
2023/07/20 05:26:09;;;;;;;2.60;1.23;;;16.70;99.20;;;;;;5070108;28;20553;-78
2023/07/20 05:28:34;;;;;;;2.87;1.53;;;16.70;99.30;;;;;;5050749;28;20185;-78
2023/07/20 05:31:03;;;;;;;2.10;1.20;;;16.80;99.30;;;;;;5062509;28;20906;-78
2023/07/20 05:33:29;;;;;;;3.00;1.43;;;16.80;99.30;;;;;;5066612;28;20188;-78
2023/07/20 05:35:54;;;;;;;3.07;1.50;;;16.90;99.20;;;;;;5068921;28;20439;-78
2023/07/20 05:38:20;;;;;;;3.20;1.33;;;17.00;99.60;;;;;;5063192;28;20180;-79
2023/07/20 05:40:46;;;;;;;3.80;1.33;;;17.20;99.70;;;;;;5067052;28;20538;-78
2023/07/20 05:43:12;;;;;;;17.60;2.10;;;17.30;99.00;;;;;;5060328;28;20268;-79
2023/07/20 05:45:41;;;;;;;7.33;1.63;;;17.40;99.10;;;;;;5051651;28;20534;-79
2023/07/20 05:48:09;;;;;;;3.13;1.23;;;17.50;98.20;;;;;;5049560;28;20177;-77
2023/07/20 05:50:35;;;;;;;2.17;1.10;;;17.60;98.60;;;;;;5060751;28;20483;-78
2023/07/20 05:53:00;;;;;;;11.40;1.83;;;17.70;98.00;;;;;;5062228;28;20443;-78
2023/07/20 05:55:26;;;;;;;1.67;0.90;;;17.90;97.20;;;;;;5066431;28;20696;-78
2023/07/20 05:57:51;;;;;;;5.57;1.60;;;18.00;96.90;;;;;;5067264;28;20309;-79
2023/07/20 06:00:19;;;;;;;2.33;1.43;;;18.00;97.00;;;;;;5059296;28;20183;-80
2023/07/20 06:02:44;;;;;;;7.03;1.60;;;18.00;97.30;;;;;;5063081;28;20181;-78
2023/07/20 06:05:10;;;;;;;3.10;1.23;;;18.00;96.30;;;;;;5061593;28;20447;-79
2023/07/20 06:07:39;;;;;;;3.10;1.40;;;18.20;96.30;;;;;;5065003;28;20314;-78
2023/07/20 06:10:06;;;;;;;3.53;1.10;;;18.30;95.80;;;;;;5065341;28;20205;-79
2023/07/20 06:12:33;;;;;;;3.40;1.50;;;18.40;95.70;;;;;;5067905;28;20423;-79
2023/07/20 06:15:02;;;;;;;3.87;1.50;;;18.40;95.40;;;;;;5064460;28;20915;-79
2023/07/20 06:17:28;;;;;;;2.80;1.17;;;18.50;95.60;;;;;;5064808;28;20411;-78
2023/07/20 06:19:53;;;;;;;3.10;1.37;;;18.60;95.00;;;;;;5055027;28;20455;-79
2023/07/20 06:22:19;;;;;;;8.00;1.27;;;18.60;94.90;;;;;;5069254;28;20272;-79
2023/07/20 06:24:45;;;;;;;4.43;1.70;;;18.50;94.40;;;;;;5070574;28;20205;-78
2023/07/20 06:27:11;;;;;;;2.50;1.30;;;18.60;94.50;;;;;;5052219;28;20496;-76
2023/07/20 06:29:37;;;;;;;2.93;1.20;;;18.60;94.90;;;;;;5062838;28;20202;-78
2023/07/20 06:32:02;;;;;;;2.73;1.03;;;18.70;94.30;;;;;;5044374;28;20430;-79
2023/07/20 06:34:29;;;;;;;1.97;0.93;;;18.70;94.30;;;;;;5048458;28;20298;-79
2023/07/20 06:36:54;;;;;;;2.23;1.20;;;18.60;94.30;;;;;;5065277;28;20563;-78
2023/07/20 06:39:21;;;;;;;5.77;1.57;;;18.70;94.60;;;;;;5048690;28;20439;-78
2023/07/20 06:41:47;;;;;;;3.87;1.47;;;18.70;94.50;;;;;;5071967;28;20185;-79
2023/07/20 06:44:12;;;;;;;3.90;1.43;;;18.80;94.80;;;;;;5048506;28;20470;-79
2023/07/20 06:46:38;;;;;;;9.93;1.73;;;18.80;94.50;;;;;;5069562;28;20650;-79
2023/07/20 06:49:06;;;;;;;5.37;1.53;;;19.00;94.00;;;;;;5069564;28;20239;-79
2023/07/20 06:51:31;;;;;;;3.43;0.93;;;19.20;93.10;;;;;;5067915;28;20178;-78
2023/07/20 06:53:57;;;;;;;2.47;1.17;;;19.20;93.10;;;;;;5067583;28;20454;-79
2023/07/20 06:56:23;;;;;;;2.87;1.50;;;19.30;93.10;;;;;;5065406;28;20181;-78
2023/07/20 06:58:48;;;;;;;2.33;1.37;;;19.20;93.20;;;;;;5065476;28;20189;-78
2023/07/20 07:01:14;;;;;;;2.53;0.93;;;19.40;93.10;;;;;;5057993;28;20548;-79
2023/07/20 07:03:40;;;;;;;1.90;1.00;;;19.40;93.20;;;;;;5068465;28;20212;-78
2023/07/20 07:06:06;;;;;;;7.77;2.07;;;19.60;92.80;;;;;;5068360;28;20448;-78
2023/07/20 07:08:32;;;;;;;2.77;1.37;;;19.80;93.00;;;;;;5070376;28;20189;-78
2023/07/20 07:10:57;;;;;;;5.53;1.70;;;20.20;92.00;;;;;;5050486;28;21217;-79
2023/07/20 07:13:23;;;;;;;3.13;1.20;;;20.20;92.00;;;;;;5066932;28;20179;-78
2023/07/20 07:15:48;;;;;;;3.33;1.30;;;20.60;91.60;;;;;;5051407;28;20181;-78
2023/07/20 07:18:14;;;;;;;11.77;1.23;;;20.70;91.50;;;;;;5071636;28;20173;-78
2023/07/20 07:20:40;;;;;;;2.70;1.40;;;20.50;91.60;;;;;;5070809;28;20185;-77
2023/07/20 07:23:05;;;;;;;5.03;1.70;;;20.60;91.60;;;;;;5067640;28;20182;-79
2023/07/20 07:25:32;;;;;;;2.13;1.20;;;20.90;91.20;;;;;;5061426;28;20229;-78
2023/07/20 07:27:57;;;;;;;2.57;1.30;;;21.00;91.10;;;;;;5076950;28;20237;-79
2023/07/20 07:30:23;;;;;;;3.10;1.27;;;21.00;90.90;;;;;;5061637;28;21057;-79
2023/07/20 07:32:49;;;;;;;2.63;1.70;;;21.00;90.40;;;;;;5070309;28;20181;-79
2023/07/20 07:35:14;;;;;;;6.00;1.87;;;21.40;90.20;;;;;;5068017;28;20673;-79
2023/07/20 07:37:40;;;;;;;3.60;1.80;;;21.60;90.00;;;;;;5068707;28;20196;-78
2023/07/20 07:40:07;;;;;;;2.17;1.33;;;21.80;89.20;;;;;;5073924;28;20568;-80
2023/07/20 07:42:33;;;;;;;1.97;1.13;;;22.30;89.40;;;;;;5077390;28;20272;-78
2023/07/20 07:44:58;;;;;;;2.20;1.20;;;22.30;87.30;;;;;;5051347;28;20652;-78
2023/07/20 07:47:24;;;;;;;2.00;1.10;;;22.20;86.00;;;;;;5071278;28;20184;-79
2023/07/20 07:49:50;;;;;;;2.83;1.10;;;21.90;86.10;;;;;;5072254;28;20540;-78
2023/07/20 07:52:15;;;;;;;4.70;0.87;;;22.50;86.70;;;;;;5061273;28;20646;-79
2023/07/20 07:54:41;;;;;;;5.00;2.07;;;23.00;85.00;;;;;;5068719;28;20740;-79
2023/07/20 07:57:07;;;;;;;6.97;1.50;;;23.60;82.30;;;;;;5056099;28;20203;-80
2023/07/20 07:59:36;;;;;;;3.90;1.80;;;24.70;79.00;;;;;;5069702;28;20260;-80
2023/07/20 08:02:05;;;;;;;4.20;1.80;;;25.20;76.40;;;;;;5066017;28;20196;-80
2023/07/20 08:04:31;;;;;;;2.70;1.20;;;24.80;75.50;;;;;;5060401;28;20205;-79
2023/07/20 08:06:57;;;;;;;2.90;1.10;;;23.90;77.40;;;;;;5069660;28;20613;-78
2023/07/20 08:09:23;;;;;;;2.60;1.40;;;23.80;78.80;;;;;;5060790;28;20198;-80
2023/07/20 08:11:49;;;;;;;2.70;1.43;;;24.50;77.90;;;;;;5065725;28;20181;-79
2023/07/20 08:14:15;;;;;;;4.00;1.97;;;25.00;75.00;;;;;;5057957;28;20193;-79
2023/07/20 08:16:41;;;;;;;2.17;1.20;;;25.30;73.90;;;;;;5060121;28;20260;-80
2023/07/20 08:19:07;;;;;;;4.70;2.20;;;25.00;75.70;;;;;;5045745;28;20259;-79
2023/07/20 08:21:32;;;;;;;7.83;1.80;;;24.60;75.50;;;;;;5067975;28;20177;-79
2023/07/20 08:23:58;;;;;;;3.80;1.90;;;25.10;72.90;;;;;;5055351;28;20206;-79
2023/07/20 08:26:24;;;;;;;7.93;1.20;;;24.80;73.10;;;;;;5053329;28;20180;-79
2023/07/20 08:28:50;;;;;;;3.40;1.40;;;24.40;71.30;;;;;;5062280;28;20177;-79
2023/07/20 08:31:15;;;;;;;3.77;1.60;;;24.00;72.50;;;;;;5063794;28;21006;-78
2023/07/20 08:33:41;;;;;;;2.57;1.43;;;23.80;73.30;;;;;;5067788;28;20223;-79
2023/07/20 08:36:07;;;;;;;4.20;1.70;;;23.80;72.30;;;;;;5068660;28;20197;-77
2023/07/20 08:38:33;;;;;;;3.17;1.60;;;23.10;74.40;;;;;;5064396;28;20176;-80
2023/07/20 08:40:59;;;;;;;2.63;1.50;;;23.10;77.30;;;;;;5074868;28;20438;-79
2023/07/20 08:43:28;;;;;;;5.50;1.73;;;23.80;74.60;;;;;;5085575;28;20276;-80
2023/07/20 08:45:58;;;;;;;2.80;1.10;;;23.70;76.20;;;;;;5086146;28;20430;-80
2023/07/20 08:48:24;;;;;;;2.23;1.10;;;23.10;76.10;;;;;;5084758;28;20443;-80
2023/07/20 08:50:57;;;;;;;3.93;1.30;;;22.80;76.20;;;;;;5062575;28;20467;-79
2023/07/20 08:53:23;;;;;;;11.00;1.33;;;22.20;78.70;;;;;;5064781;28;20564;-80
2023/07/20 08:55:51;;;;;;;4.83;1.47;;;22.00;80.40;;;;;;5065585;28;20861;-79
2023/07/20 08:58:17;;;;;;;2.03;1.00;;;21.90;80.20;;;;;;5063326;28;20642;-81
2023/07/20 09:00:43;;;;;;;2.20;1.30;;;21.70;79.20;;;;;;5065311;28;20951;-80
2023/07/20 09:03:10;;;;;;;3.70;1.37;;;21.50;78.30;;;;;;5067049;28;20439;-81
2023/07/20 09:05:36;;;;;;;5.07;1.67;;;21.20;80.00;;;;;;5075385;28;20249;-80
2023/07/20 09:08:05;;;;;;;2.27;1.13;;;21.10;81.50;;;;;;5047033;28;20558;-80
2023/07/20 09:10:31;;;;;;;2.10;1.20;;;22.00;79.70;;;;;;5055796;28;20200;-80
2023/07/20 09:12:56;;;;;;;3.70;1.63;;;23.00;73.60;;;;;;5048493;28;20447;-81
2023/07/20 09:15:22;;;;;;;5.00;1.30;;;23.90;76.10;;;;;;5064424;28;20407;-81
2023/07/20 09:17:53;;;;;;;3.50;1.03;;;24.90;69.20;;;;;;5071058;28;20181;-80
2023/07/20 09:20:20;;;;;;;2.93;1.23;;;25.50;66.50;;;;;;5073217;28;20472;-80
2023/07/20 09:22:46;;;;;;;2.97;1.37;;;25.80;65.50;;;;;;5082934;28;20203;-81
2023/07/20 09:25:22;;;;;;;2.65;1.63;;;25.90;65.60;;;;;;5068459;28;20228;-80
2023/07/20 09:27:49;;;;;;;1.97;0.83;;;25.60;64.40;;;;;;5081188;28;20192;-81
2023/07/20 09:30:16;;;;;;;1.90;0.90;;;25.10;65.40;;;;;;5066956;28;20255;-79
2023/07/20 09:32:50;;;;;;;2.73;1.37;;;24.30;66.40;;;;;;5071988;28;20169;-81
2023/07/20 09:35:20;;;;;;;8.97;1.60;;;23.80;66.40;;;;;;5067721;28;20473;-80
2023/07/20 09:38:00;;;;;;;13.33;1.80;;;23.40;68.20;;;;;;5078782;28;20418;-80
2023/07/20 09:40:28;;;;;;;2.43;1.40;;;23.00;68.20;;;;;;5067412;28;20434;-80
2023/07/20 09:43:02;;;;;;;4.03;1.03;;;22.70;72.90;;;;;;5071831;28;20434;-81
2023/07/20 09:45:33;;;;;;;1.77;1.00;;;22.50;74.30;;;;;;5062352;28;20454;-81
2023/07/20 09:48:06;;;;;;;6.00;1.30;;;23.20;74.00;;;;;;5073853;28;20423;-81
2023/07/20 09:50:33;;;;;;;7.43;1.60;;;23.60;73.20;;;;;;5062067;28;20541;-81
2023/07/20 09:53:00;;;;;;;1.97;1.00;;;23.40;69.90;;;;;;5062905;28;20447;-80
2023/07/20 09:55:26;;;;;;;2.43;1.20;;;23.10;69.90;;;;;;5067656;28;20454;-81
2023/07/20 09:57:53;;;;;;;2.83;1.20;;;23.20;71.00;;;;;;5058641;28;20845;-81
2023/07/20 10:00:20;;;;;;;4.80;1.23;;;23.40;69.00;;;;;;5066186;28;20238;-81
2023/07/20 10:02:46;;;;;;;3.13;1.50;;;23.20;69.50;;;;;;5066858;28;20568;-80
2023/07/20 10:05:17;;;;;;;1.60;0.70;;;23.50;69.40;;;;;;5063349;28;20451;-81
2023/07/20 10:07:51;;;;;;;2.60;1.00;;;23.90;64.60;;;;;;5078393;28;20457;-80
2023/07/20 10:10:18;;;;;;;3.60;1.57;;;24.70;63.30;;;;;;5057701;28;20488;-81
2023/07/20 10:12:48;;;;;;;2.37;1.27;;;24.10;64.30;;;;;;5078403;28;20442;-81
2023/07/20 10:15:28;;;;;;;2.90;1.03;;;23.70;64.10;;;;;;5077598;28;20890;-81
2023/07/20 10:18:11;;;;;;;4.47;0.90;;;23.30;66.90;;;;;;5076210;28;20433;-80
2023/07/20 10:20:40;;;;;;;5.40;1.60;;;22.90;66.20;;;;;;5064870;28;20442;-78
2023/07/20 10:23:06;;;;;;;2.30;0.97;;;22.90;68.20;;;;;;5049683;28;22092;-77
2023/07/20 10:25:37;;;;;;;4.37;1.33;;;23.30;66.80;;;;;;5068458;28;20452;-78
2023/07/20 10:28:07;;;;;;;6.17;0.87;;;23.70;66.80;;;;;;5070548;28;20446;-80
2023/07/20 10:30:34;;;;;;;1.80;0.90;;;24.00;64.20;;;;;;5072719;28;20457;-79
2023/07/20 10:33:04;;;;;;;1.53;0.80;;;23.70;62.50;;;;;;5060796;28;21050;-80
2023/07/20 10:35:30;;;;;;;6.53;1.30;;;23.30;63.90;;;;;;5074287;28;20494;-79
2023/07/20 10:38:01;;;;;;;3.93;1.50;;;23.10;65.60;;;;;;5080883;28;20506;-80
2023/07/20 10:40:39;;;;;;;2.27;0.87;;;23.10;65.70;;;;;;5079981;28;20446;-80
2023/07/20 10:43:09;;;;;;;5.67;1.27;;;23.40;66.60;;;;;;5079701;28;20425;-80
2023/07/20 10:45:50;;;;;;;4.43;1.13;;;23.70;65.10;;;;;;5072212;28;20446;-80
2023/07/20 10:48:21;;;;;;;1.80;0.90;;;23.90;64.60;;;;;;5065244;28;20569;-80
2023/07/20 10:51:10;;;;;;;3.90;1.10;;;24.20;65.30;;;;;;5075380;28;20451;-79
2023/07/20 10:53:36;;;;;;;2.17;0.90;;;24.50;63.30;;;;;;5079622;28;20481;-77
2023/07/20 10:56:13;;;;;;;2.10;0.90;;;24.30;61.10;;;;;;5072830;28;20812;-80
2023/07/20 10:58:40;;;;;;;2.43;1.10;;;24.30;61.30;;;;;;5053605;28;20192;-78
2023/07/20 11:01:06;;;;;;;4.03;1.50;;;24.40;61.20;;;;;;5072447;28;20434;-79
2023/07/20 11:03:39;;;;;;;2.60;1.20;;;24.60;61.90;;;;;;5051083;28;20441;-78
2023/07/20 11:06:33;;;;;;;1.83;0.97;;;24.60;60.90;;;;;;5069900;28;20177;-79
2023/07/20 11:09:15;;;;;;;4.43;1.73;;;24.60;60.50;;;;;;5079244;28;20480;-79
2023/07/20 11:11:48;;;;;;;4.10;1.47;;;24.70;61.20;;;;;;5074156;28;20438;-80
2023/07/20 11:14:25;;;;;;;1.87;1.00;;;24.70;59.40;;;;;;5066244;28;20840;-78
2023/07/20 11:16:52;;;;;;;2.50;1.00;;;24.70;60.60;;;;;;5074841;28;20419;-79
2023/07/20 11:19:19;;;;;;;2.13;1.23;;;24.80;59.40;;;;;;5078251;28;20466;-79
2023/07/20 11:21:46;;;;;;;2.23;1.07;;;25.00;58.70;;;;;;5058249;28;20728;-80
2023/07/20 11:24:13;;;;;;;2.53;1.33;;;25.00;58.90;;;;;;5055667;28;20451;-81
2023/07/20 11:26:54;;;;;;;2.13;0.80;;;25.00;58.00;;;;;;5068912;28;20863;-81
2023/07/20 11:29:23;;;;;;;2.67;1.00;;;25.40;58.00;;;;;;5071076;28;20840;-80
2023/07/20 11:31:49;;;;;;;2.07;1.27;;;25.70;58.00;;;;;;5075822;28;20437;-79
2023/07/20 11:34:17;;;;;;;2.17;0.97;;;25.50;58.50;;;;;;5060927;28;20449;-79
2023/07/20 11:36:45;;;;;;;2.57;1.10;;;25.40;59.20;;;;;;5073930;28;20498;-80
2023/07/20 11:39:13;;;;;;;2.10;1.20;;;25.30;58.30;;;;;;5064886;28;20432;-80
2023/07/20 11:41:43;;;;;;;8.50;0.90;;;25.50;58.50;;;;;;5069807;28;20415;-81
2023/07/20 11:44:12;;;;;;;2.37;0.80;;;25.50;57.50;;;;;;5069944;28;20576;-80
2023/07/20 11:46:39;;;;;;;2.97;1.30;;;25.60;57.70;;;;;;5063050;28;20427;-80
2023/07/20 11:49:05;;;;;;;1.73;1.00;;;25.80;57.30;;;;;;5077424;28;20408;-79
2023/07/20 11:51:31;;;;;;;2.53;1.37;;;26.10;57.30;;;;;;5071873;28;20465;-80
2023/07/20 11:53:57;;;;;;;1.80;0.80;;;26.10;56.90;;;;;;5076362;28;20450;-80
2023/07/20 11:56:25;;;;;;;2.30;0.90;;;26.00;58.70;;;;;;5075195;28;20431;-81
2023/07/20 11:58:54;;;;;;;5.40;1.10;;;26.10;56.50;;;;;;5076972;28;20418;-81
2023/07/20 12:01:20;;;;;;;5.57;1.60;;;25.90;58.00;;;;;;5051625;28;20939;-78
2023/07/20 12:03:47;;;;;;;2.13;1.00;;;26.10;57.10;;;;;;5070918;28;20485;-78
2023/07/20 12:06:13;;;;;;;3.30;0.97;;;26.10;57.30;;;;;;5063656;28;21076;-76
2023/07/20 12:08:43;;;;;;;1.90;0.90;;;25.70;56.50;;;;;;5058359;28;20442;-80
2023/07/20 12:11:08;;;;;;;2.33;1.10;;;26.00;56.60;;;;;;5062674;28;20307;-80
2023/07/20 12:13:44;;;;;;;1.87;0.93;;;25.90;57.40;;;;;;5067039;28;20521;-79
2023/07/20 12:16:14;;;;;;;2.67;1.17;;;25.80;56.90;;;;;;5050953;28;20219;-78
2023/07/20 12:18:42;;;;;;;2.03;0.87;;;25.90;57.40;;;;;;5071135;28;20498;-80
2023/07/20 12:21:08;;;;;;;2.73;1.10;;;25.90;56.10;;;;;;5045700;28;20442;-79
2023/07/20 12:23:39;;;;;;;1.77;0.90;;;25.80;54.90;;;;;;5054039;28;20810;-79
2023/07/20 12:26:10;;;;;;;2.17;1.13;;;25.70;57.80;;;;;;5059176;28;20427;-76
2023/07/20 12:28:42;;;;;;;2.27;0.90;;;25.60;57.90;;;;;;5072211;28;20426;-79
2023/07/20 12:31:10;;;;;;;1.90;1.10;;;25.40;56.80;;;;;;5072623;28;21093;-78
2023/07/20 12:33:37;;;;;;;1.93;0.93;;;25.00;58.10;;;;;;5065025;28;20511;-79
2023/07/20 12:36:04;;;;;;;2.17;1.00;;;25.00;57.30;;;;;;5068520;28;20804;-78
2023/07/20 12:38:30;;;;;;;2.23;1.10;;;25.10;58.80;;;;;;5064908;28;20476;-78
2023/07/20 12:40:57;;;;;;;1.97;0.80;;;25.00;57.50;;;;;;5068600;28;20431;-78
2023/07/20 12:43:22;;;;;;;3.83;1.10;;;25.10;58.50;;;;;;5067632;28;20439;-79
2023/07/20 12:45:48;;;;;;;2.10;0.90;;;25.20;56.70;;;;;;5061979;28;20870;-80